createdAt,value
2022-11-16T00:02:13.295Z,100446.41
2022-11-16T00:04:40.843Z,100449.59
2022-11-16T00:07:08.794Z,100445.78
2022-11-16T00:09:36.729Z,100433.28
2022-11-16T00:12:07.000Z,100435.00
2022-11-16T00:14:35.593Z,100432.75
2022-11-16T00:17:04.877Z,100414.22
2022-11-16T00:19:33.240Z,100418.63
2022-11-16T00:22:03.386Z,100408.59
2022-11-16T00:24:33.371Z,100412.81
2022-11-16T00:27:00.773Z,100417.00
2022-11-16T00:29:31.538Z,100404.44
2022-11-16T00:31:58.963Z,100406.16
2022-11-16T00:34:26.320Z,100399.84
2022-11-16T00:36:53.618Z,100397.94
2022-11-16T00:39:21.028Z,100399.47
2022-11-16T00:41:49.287Z,100403.97
2022-11-16T00:44:16.976Z,100390.63
2022-11-16T00:46:44.393Z,100394.91
2022-11-16T00:49:11.740Z,100390.34
2022-11-16T00:51:41.736Z,100382.59
2022-11-16T00:54:09.390Z,100381.53
2022-11-16T00:56:37.580Z,100379.66
2022-11-16T00:59:21.386Z,100379.53
2022-11-16T01:01:48.851Z,100364.81
2022-11-16T01:04:16.421Z,100374.59
2022-11-16T01:06:44.460Z,100367.88
2022-11-16T01:09:11.770Z,100363.31
2022-11-16T01:11:57.650Z,100369.53
2022-11-16T01:14:33.604Z,100355.31
2022-11-16T01:17:00.927Z,100356.06
2022-11-16T01:19:31.351Z,100346.13
2022-11-16T01:21:59.120Z,100341.75
2022-11-16T01:24:27.269Z,100336.69
2022-11-16T01:26:58.390Z,100328.69
2022-11-16T01:29:29.242Z,100329.13
2022-11-16T01:31:56.995Z,100336.13
2022-11-16T01:34:25.209Z,100326.28
2022-11-16T01:36:52.592Z,100320.94
2022-11-16T01:39:20.007Z,100326.19
2022-11-16T01:41:47.711Z,100318.09
2022-11-16T01:44:35.222Z,100318.81
2022-11-16T01:47:08.906Z,100309.09
2022-11-16T01:49:41.615Z,100308.44
2022-11-16T01:52:12.273Z,100300.31
2022-11-16T01:54:42.941Z,100300.22
2022-11-16T01:57:13.163Z,100307.38
2022-11-16T01:59:41.127Z,100298.31
2022-11-16T02:02:09.828Z,100293.53
2022-11-16T02:04:37.241Z,100294.28
2022-11-16T02:07:32.026Z,100303.28
2022-11-16T02:10:20.896Z,100293.44
2022-11-16T02:13:07.544Z,100301.44
2022-11-16T02:15:41.601Z,100297.19
2022-11-16T02:18:11.646Z,100299.75
2022-11-16T02:21:05.892Z,100302.31
2022-11-16T02:23:58.656Z,100297.84
2022-11-16T02:27:03.130Z,100299.44
2022-11-16T02:29:33.723Z,100294.22
2022-11-16T02:32:19.623Z,100306.13
2022-11-16T02:34:57.789Z,100298.00
2022-11-16T02:37:25.873Z,100282.81
2022-11-16T02:39:56.945Z,100273.94
2022-11-16T02:42:30.370Z,100272.25
2022-11-16T02:44:58.426Z,100271.38
2022-11-16T02:47:29.658Z,100266.88
2022-11-16T02:50:07.675Z,100277.59
2022-11-16T02:52:36.216Z,100288.28
2022-11-16T02:55:04.398Z,100276.53
2022-11-16T02:57:39.438Z,100276.63
2022-11-16T03:00:08.599Z,100258.97
2022-11-16T03:03:10.659Z,100264.41
2022-11-16T03:05:45.729Z,100265.47
2022-11-16T03:08:20.821Z,100258.00
2022-11-16T03:11:11.990Z,100248.38
2022-11-16T03:13:40.564Z,100252.38
2022-11-16T03:16:19.300Z,100251.22
2022-11-16T03:18:47.314Z,100238.91
2022-11-16T03:21:35.806Z,100229.16
2022-11-16T03:24:04.041Z,100229.94
2022-11-16T03:27:27.301Z,100231.72
2022-11-16T03:30:23.986Z,100228.13
2022-11-16T03:33:22.197Z,100219.13
2022-11-16T03:35:59.036Z,100236.03
2022-11-16T03:38:27.691Z,100240.41
2022-11-16T03:40:59.902Z,100233.16
2022-11-16T03:43:27.741Z,100215.19
2022-11-16T03:45:55.151Z,100226.75
2022-11-16T03:48:22.640Z,100226.66
2022-11-16T03:50:50.229Z,100233.59
2022-11-16T03:53:17.592Z,100221.97
2022-11-16T03:55:49.789Z,100214.03
2022-11-16T03:58:18.740Z,100219.28
2022-11-16T04:00:46.237Z,100205.03
2022-11-16T04:03:13.884Z,100206.88
2022-11-16T04:06:07.768Z,100202.38
2022-11-16T04:08:53.945Z,100203.25
2022-11-16T04:11:40.700Z,100199.63
2022-11-16T04:14:32.895Z,100194.16
2022-11-16T04:17:18.567Z,100189.78
2022-11-16T04:20:04.344Z,100184.31
2022-11-16T04:23:00.758Z,100184.31
2022-11-16T04:25:32.251Z,100182.59
2022-11-16T04:28:14.823Z,100172.69
2022-11-16T04:31:03.094Z,100165.59
2022-11-16T04:33:49.968Z,100155.66
2022-11-16T04:36:36.605Z,100156.41
2022-11-16T04:39:05.057Z,100163.50
2022-11-16T04:41:51.208Z,100166.06
2022-11-16T04:44:19.232Z,100165.00
2022-11-16T04:47:04.884Z,100160.50
2022-11-16T04:49:32.784Z,100164.03
2022-11-16T04:52:00.274Z,100164.13
2022-11-16T04:54:27.618Z,100169.16
2022-11-16T04:56:54.948Z,100159.34
2022-11-16T04:59:22.299Z,100158.38
2022-11-16T05:02:08.297Z,100153.88
2022-11-16T05:04:40.791Z,100166.28
2022-11-16T05:07:11.957Z,100156.34
2022-11-16T05:09:46.835Z,100165.03
2022-11-16T05:12:19.944Z,100171.13
2022-11-16T05:14:47.432Z,100161.19
2022-11-16T05:17:15.412Z,100172.75
2022-11-16T05:20:01.251Z,100169.84
2022-11-16T05:22:29.002Z,100161.59
2022-11-16T05:24:56.231Z,100171.34
2022-11-16T05:27:24.397Z,100165.66
2022-11-16T05:29:55.253Z,100162.72
2022-11-16T05:32:24.078Z,100165.28
2022-11-16T05:34:51.618Z,100155.31
2022-11-16T05:37:30.663Z,100158.53
2022-11-16T05:40:00.115Z,100153.72
2022-11-16T05:42:27.608Z,100155.31
2022-11-16T05:44:54.906Z,100151.78
2022-11-16T05:47:22.227Z,100157.91
2022-11-16T05:49:49.732Z,100145.25
2022-11-16T05:52:17.096Z,100145.25
2022-11-16T05:54:45.093Z,100147.72
2022-11-16T05:57:12.600Z,100147.59
2022-11-16T05:59:39.910Z,100144.00
2022-11-16T06:02:07.217Z,100134.88
2022-11-16T06:04:34.479Z,100138.19
2022-11-16T06:07:02.118Z,100137.34
2022-11-16T06:09:29.577Z,100129.31
2022-11-16T06:11:58.754Z,100129.31
2022-11-16T06:14:26.475Z,100131.13
2022-11-16T06:16:53.768Z,100124.16
2022-11-16T06:19:22.585Z,100116.13
2022-11-16T06:21:49.838Z,100118.91
2022-11-16T06:24:17.283Z,100119.66
2022-11-16T06:26:46.028Z,100124.16
2022-11-16T06:29:15.061Z,100119.78
2022-11-16T06:31:42.814Z,100116.03
2022-11-16T06:34:10.112Z,100111.28
2022-11-16T06:36:39.015Z,100101.44
2022-11-16T06:39:11.371Z,100106.59
2022-11-16T06:41:41.542Z,100103.91
2022-11-16T06:44:09.009Z,100099.31
2022-11-16T06:46:36.392Z,100093.84
2022-11-16T06:49:03.617Z,100093.63
2022-11-16T06:51:30.813Z,100100.47
2022-11-16T06:53:58.692Z,100101.22
2022-11-16T06:56:27.150Z,100105.16
2022-11-16T06:58:57.595Z,100097.97
2022-11-16T07:01:25.239Z,100106.31
2022-11-16T07:03:52.660Z,100098.06
2022-11-16T07:06:20.055Z,100096.91
2022-11-16T07:08:53.177Z,100101.19
2022-11-16T07:11:22.962Z,100100.97
2022-11-16T07:13:50.993Z,100092.72
2022-11-16T07:16:18.229Z,100100.63
2022-11-16T07:18:45.435Z,100089.06
2022-11-16T07:21:15.518Z,100096.97
2022-11-16T07:23:43.626Z,100096.88
2022-11-16T07:26:11.847Z,100093.00
2022-11-16T07:28:43.497Z,100085.47
2022-11-16T07:31:15.917Z,100080.97
2022-11-16T07:33:43.817Z,100082.94
2022-11-16T07:36:13.701Z,100065.53
2022-11-16T07:38:41.177Z,100072.38
2022-11-16T07:41:11.455Z,100062.38
2022-11-16T07:43:39.891Z,100058.28
2022-11-16T07:49:19.545Z,100057.81
2022-11-16T07:51:47.012Z,100055.75
2022-11-16T07:54:15.087Z,100044.81
2022-11-16T07:57:02.298Z,100052.13
2022-11-16T07:59:29.567Z,100054.06
2022-11-16T08:01:57.199Z,100046.75
2022-11-16T08:04:24.999Z,100035.78
2022-11-16T08:06:52.219Z,100037.38
2022-11-16T08:09:19.753Z,100036.53
2022-11-16T08:11:48.384Z,100047.75
2022-11-16T08:14:16.191Z,100051.53
2022-11-16T08:16:43.532Z,100046.91
2022-11-16T08:19:11.187Z,100045.56
2022-11-16T08:21:39.449Z,100046.97
2022-11-16T08:24:07.307Z,100043.94
2022-11-16T08:26:35.343Z,100048.81
2022-11-16T08:29:05.408Z,100047.59
2022-11-16T08:31:34.109Z,100034.06
2022-11-16T08:34:01.849Z,100032.63
2022-11-16T08:36:29.127Z,100027.25
2022-11-16T08:38:56.405Z,100035.06
2022-11-16T08:41:23.625Z,100027.50
2022-11-16T08:43:51.159Z,100031.78
2022-11-16T08:46:18.325Z,100019.72
2022-11-16T08:48:46.219Z,100022.16
2022-11-16T08:51:18.559Z,100008.38
2022-11-16T08:53:48.560Z,100013.50
2022-11-16T08:56:17.908Z,100008.88
2022-11-16T08:58:51.345Z,100003.50
2022-11-16T09:01:24.674Z,100000.78
2022-11-16T09:03:52.952Z,100003.38
2022-11-16T09:06:20.494Z,99994.81
2022-11-16T09:08:47.928Z,99993.34
2022-11-16T09:11:18.187Z,99996.03
2022-11-16T09:13:46.305Z,99988.44
2022-11-16T09:16:16.731Z,99993.66
2022-11-16T09:18:47.201Z,99987.16
2022-11-16T09:21:24.321Z,99985.72
2022-11-16T09:23:52.765Z,99983.28
2022-11-16T09:26:22.963Z,99985.13
2022-11-16T09:28:56.007Z,99978.19
2022-11-16T09:31:23.981Z,99981.97
2022-11-16T09:33:51.438Z,99988.56
2022-11-16T09:36:20.403Z,99972.66
2022-11-16T09:39:25.908Z,99969.25
2022-11-16T09:41:51.407Z,99962.75
2022-11-16T09:44:39.995Z,99956.94
2022-11-16T09:47:22.063Z,99954.25
2022-11-16T09:49:56.793Z,99953.72
2022-11-16T09:52:37.645Z,99944.03
2022-11-16T09:55:29.220Z,99956.38
2022-11-16T09:57:58.840Z,99948.78
2022-11-16T10:00:29.329Z,99956.44
2022-11-16T10:03:05.978Z,99954.38
2022-11-16T10:05:45.143Z,99953.88
2022-11-16T10:08:26.998Z,99932.47
2022-11-16T11:49:05.215Z,99851.22
2022-11-16T11:51:42.291Z,99844.13
2022-11-16T11:56:31.248Z,99833.28
2022-11-16T11:58:45.051Z,99824.47
2022-11-16T12:04:59.247Z,99828.97
2022-11-16T12:07:47.821Z,99831.50
2022-11-16T12:10:26.394Z,99827.22
2022-11-16T12:13:00.826Z,99821.16
2022-11-16T12:15:50.065Z,99821.66
2022-11-16T12:18:39.508Z,99826.13
2022-11-16T12:21:14.911Z,99812.94
2022-11-16T12:23:46.830Z,99816.63
2022-11-16T12:26:29.105Z,99817.13
2022-11-16T12:29:27.497Z,99813.69
2022-11-16T12:32:00.482Z,99817.38
2022-11-16T12:35:08.328Z,99813.56
2022-11-16T12:37:58.144Z,99810.00
2022-11-16T12:40:52.041Z,99804.53
2022-11-16T12:43:35.936Z,99813.84
2022-11-16T12:46:10.422Z,99815.28
2022-11-16T12:49:06.094Z,99813.28
2022-11-16T12:51:37.571Z,99810.50
2022-11-16T12:54:30.792Z,99808.78
2022-11-16T12:57:25.977Z,99808.78
2022-11-16T12:59:55.879Z,99813.06
2022-11-16T13:02:34.849Z,99807.94
2022-11-16T13:05:26.182Z,99800.63
2022-11-16T13:08:07.996Z,99801.34
2022-11-16T13:10:43.069Z,99803.03
2022-11-16T13:13:35.391Z,99801.94
2022-11-16T13:16:05.659Z,99805.47
2022-11-16T13:18:33.628Z,99795.72
2022-11-16T13:21:06.412Z,99798.66
2022-11-16T13:23:39.845Z,99797.06
2022-11-16T13:26:25.601Z,99781.31
2022-11-16T13:29:12.325Z,99788.53
2022-11-16T13:31:42.538Z,99788.53
2022-11-16T13:34:23.076Z,99789.38
2022-11-16T13:36:50.361Z,99778.63
2022-11-16T13:39:22.708Z,99786.69
2022-11-16T13:42:15.072Z,99774.25
2022-11-16T13:44:45.204Z,99780.47
2022-11-16T13:47:29.315Z,99785.00
2022-11-16T13:50:01.545Z,99784.13
2022-11-16T13:53:40.880Z,99784.38
2022-11-16T13:55:43.091Z,99785.25
2022-11-16T13:58:21.952Z,99779.03
2022-11-16T14:05:39.614Z,99781.72
2022-11-16T14:08:27.367Z,99782.00
2022-11-16T14:10:54.962Z,99775.03
2022-11-16T14:13:39.775Z,99780.66
2022-11-16T14:16:35.011Z,99773.59
2022-11-16T14:19:49.244Z,99778.03
2022-11-16T14:22:43.006Z,99765.31
2022-11-16T14:25:31.056Z,99766.16
2022-11-16T14:27:58.310Z,99768.16
2022-11-16T14:30:32.463Z,99772.06
2022-11-16T14:33:00.904Z,99764.72
2022-11-16T14:35:42.827Z,99767.41
2022-11-16T14:38:42.521Z,99765.56
2022-11-16T14:41:19.278Z,99765.72
2022-11-16T14:43:50.839Z,99770.63
2022-11-16T14:46:26.255Z,99760.28
2022-11-16T14:48:55.579Z,99754.38
2022-11-16T14:51:27.642Z,99762.44
2022-11-16T14:53:57.999Z,99761.59
2022-11-16T14:56:25.427Z,99765.25
2022-11-16T14:58:58.113Z,99760.13
2022-11-16T15:01:34.478Z,99750.13
2022-11-16T15:04:04.519Z,99762.69
2022-11-16T15:07:04.681Z,99761.97
2022-11-16T15:10:04.504Z,99752.22
2022-11-16T15:12:46.035Z,99756.00
2022-11-16T15:15:17.008Z,99749.94
2022-11-16T15:17:53.539Z,99747.63
2022-11-16T15:20:24.615Z,99756.19
2022-11-16T15:23:00.737Z,99752.91
2022-11-16T15:25:38.020Z,99753.25
2022-11-16T15:28:15.421Z,99747.63
2022-11-16T15:30:48.949Z,99747.88
2022-11-16T15:33:22.860Z,99745.19
2022-11-16T15:35:50.680Z,99752.41
2022-11-16T15:38:21.779Z,99740.94
2022-11-16T15:40:52.408Z,99735.66
2022-11-16T15:43:49.613Z,99736.50
2022-11-16T15:46:29.806Z,99723.97
2022-11-16T15:48:59.223Z,99731.63
2022-11-16T15:51:31.256Z,99731.38
2022-11-16T15:55:04.911Z,99738.59
2022-11-16T15:57:32.444Z,99747.25
2022-11-16T15:59:59.896Z,99738.34
2022-11-16T16:02:28.756Z,99732.69
2022-11-16T16:04:56.640Z,99733.22
2022-11-16T16:07:43.082Z,99738.69
2022-11-16T16:10:25.241Z,99731.25
2022-11-16T16:13:06.202Z,99732.47
2022-11-16T16:15:36.574Z,99731.63
2022-11-16T16:18:13.789Z,99722.88
2022-11-16T16:20:47.415Z,99715.41
2022-11-16T16:23:16.403Z,99710.06
2022-11-16T16:25:50.139Z,99713.59
2022-11-16T16:28:17.973Z,99711.75
2022-11-16T16:30:46.000Z,99707.09
2022-11-16T16:33:19.630Z,99716.88
2022-11-16T16:35:49.939Z,99708.91
2022-11-16T16:38:17.179Z,99712.59
2022-11-16T16:40:47.514Z,99713.31
2022-11-16T16:43:21.258Z,99708.06
2022-11-16T16:45:51.487Z,99709.16
2022-11-16T16:48:21.019Z,99706.63
2022-11-16T16:50:48.621Z,99705.63
2022-11-16T16:53:19.952Z,99706.38
2022-11-16T16:58:41.761Z,99689.94
2022-11-16T17:01:12.400Z,99701.13
2022-11-16T17:03:42.356Z,99697.59
2022-11-16T17:06:14.795Z,99686.84
2022-11-16T17:08:57.880Z,99698.19
2022-11-16T17:11:34.325Z,99690.03
2022-11-16T17:14:05.943Z,99691.72
2022-11-16T17:16:36.451Z,99687.34
2022-11-16T17:19:05.462Z,99682.81
2022-11-16T17:21:55.252Z,99680.13
2022-11-16T17:24:22.634Z,99675.16
2022-11-16T17:26:54.155Z,99677.84
2022-11-16T17:29:33.087Z,99673.56
2022-11-16T17:32:01.255Z,99670.88
2022-11-16T17:34:42.902Z,99665.47
2022-11-16T17:37:10.417Z,99665.56
2022-11-16T17:39:37.650Z,99660.66
2022-11-16T17:42:08.179Z,99656.28
2022-11-16T17:44:37.603Z,99648.22
2022-11-16T17:47:07.471Z,99649.81
2022-11-16T17:49:35.289Z,99649.81
2022-11-16T17:52:16.030Z,99648.22
2022-11-16T17:54:48.106Z,99649.47
2022-11-16T17:57:15.862Z,99653.59
2022-11-16T17:59:50.990Z,99649.22
2022-11-16T18:02:19.070Z,99652.75
2022-11-16T18:04:50.888Z,99644.84
2022-11-16T18:07:18.571Z,99636.78
2022-11-16T18:09:46.090Z,99639.72
2022-11-16T18:12:16.426Z,99642.25
2022-11-16T18:15:00.127Z,99641.16
2022-11-16T18:17:36.895Z,99639.47
2022-11-16T18:20:04.883Z,99629.56
2022-11-16T18:22:33.065Z,99634.94
2022-11-16T20:46:01.005Z,99531.28
2022-11-16T20:48:28.691Z,99538.09
2022-11-16T20:50:59.836Z,99529.75
2022-11-16T20:53:27.110Z,99529.75
2022-11-16T20:55:54.580Z,99528.81
2022-11-16T20:58:23.000Z,99524.41
2022-11-16T21:00:50.763Z,99523.69
2022-11-16T21:03:18.211Z,99518.47
2022-11-16T21:05:49.929Z,99504.31
2022-11-16T21:08:17.828Z,99509.84
2022-11-16T21:10:45.282Z,99508.69
2022-11-16T21:13:33.201Z,99507.84
2022-11-16T21:16:03.636Z,99507.16
2022-11-16T21:18:31.892Z,99504.47
2022-11-16T21:21:04.309Z,99499.34
2022-11-16T21:23:33.803Z,99507.66
2022-11-16T21:26:05.878Z,99490.03
2022-11-16T21:28:33.541Z,99498.06
2022-11-16T21:31:05.999Z,99500.84
2022-11-16T21:33:34.451Z,99497.91
2022-11-16T21:36:06.477Z,99496.22
2022-11-16T21:38:34.384Z,99484.75
2022-11-16T21:41:02.050Z,99485.06
2022-11-16T21:43:29.397Z,99486.53
2022-11-16T21:46:04.629Z,99482.66
2022-11-16T21:48:34.274Z,99483.66
2022-11-16T21:51:02.699Z,99472.19
2022-11-16T21:53:30.398Z,99478.28
2022-11-16T21:55:58.044Z,99473.06
2022-11-16T21:58:25.591Z,99474.78
2022-11-16T22:00:57.252Z,99472.94
2022-11-16T22:03:26.434Z,99473.94
2022-11-16T22:06:16.123Z,99470.50
2022-11-16T22:08:44.348Z,99455.41
2022-11-16T22:11:12.357Z,99448.59
2022-11-16T22:13:39.867Z,99446.91
2022-11-16T22:16:08.449Z,99452.28
2022-11-16T22:18:37.289Z,99443.50
2022-11-16T22:21:05.634Z,99433.91
2022-11-16T22:23:33.781Z,99433.78
2022-11-16T22:26:03.165Z,99430.09
2022-11-16T22:28:31.372Z,99427.31
2022-11-16T22:31:00.233Z,99420.13
2022-11-16T22:33:28.005Z,99413.91
2022-11-16T22:35:55.485Z,99417.84
2022-11-16T22:38:22.810Z,99406.53
2022-11-16T22:40:54.772Z,99404.69
2022-11-16T22:43:27.990Z,99411.03
2022-11-16T22:46:04.547Z,99397.88
2022-11-16T22:48:37.644Z,99409.50
2022-11-16T22:51:05.069Z,99396.84
2022-11-16T22:53:32.800Z,99387.22
2022-11-16T22:56:07.635Z,99390.28
2022-11-16T22:58:38.932Z,99378.03
2022-11-16T23:01:08.482Z,99382.16
2022-11-16T23:03:36.506Z,99385.28
2022-11-16T23:06:06.005Z,99381.34
2022-11-16T23:08:34.187Z,99390.09
2022-11-16T23:11:21.436Z,99379.50
2022-11-16T23:14:07.742Z,99382.66
2022-11-16T23:16:35.563Z,99386.16
2022-11-16T23:19:03.168Z,99382.50
2022-11-16T23:21:49.415Z,99377.13
2022-11-16T23:24:35.234Z,99382.38
2022-11-16T23:27:22.589Z,99387.50
2022-11-16T23:29:49.771Z,99385.19
2022-11-16T23:32:16.983Z,99384.47
2022-11-16T23:34:45.581Z,99375.78
2022-11-16T23:37:12.852Z,99373.78
2022-11-16T23:39:41.475Z,99365.66
2022-11-16T23:42:28.592Z,99366.59
2022-11-16T23:44:55.874Z,99360.28
2022-11-16T23:47:23.385Z,99367.34
2022-11-16T23:49:53.453Z,99357.13
2022-11-16T23:52:20.891Z,99358.84
2022-11-16T23:54:58.343Z,99355.63
2022-11-16T23:57:25.732Z,99350.69
2022-11-16T23:59:52.930Z,99342.34
